Time;durP1;ratioP1;P1;durP2;ratioP2;P2;SDS_P1;SDS_P2;PMS_P1;PMS_P2;Temp;Humidity;BMP_temperature;BMP_pressure;BME280_temperature;BME280_humidity;BME280_pressure;Samples;Min_cycle;Max_cycle;Signal;HPM_P1;HPM_P2
2022/07/18 00:00:00;;;;;;;3.25;1.55;;;;;;;18.41;40.59;94645.66;5123247;28;20028;-75
2022/07/18 00:02:26;;;;;;;3.30;1.58;;;;;;;18.36;41.59;94649.41;5122975;28;20351;-75
2022/07/18 00:04:52;;;;;;;6.35;1.52;;;;;;;18.25;40.69;94651.00;5123231;28;20031;-76
2022/07/18 00:07:18;;;;;;;7.05;1.50;;;;;;;18.31;40.94;94656.94;5123037;28;20023;-76
2022/07/18 00:09:43;;;;;;;4.28;1.33;;;;;;;18.21;40.48;94659.00;5123125;28;20029;-76
2022/07/18 00:12:10;;;;;;;3.25;1.63;;;;;;;18.24;40.69;94652.16;5122865;28;20027;-75
2022/07/18 00:14:36;;;;;;;3.40;1.58;;;;;;;18.19;40.57;94650.44;5122858;28;20032;-75
2022/07/18 00:17:03;;;;;;;5.93;1.50;;;;;;;18.12;41.19;94655.66;5122873;28;20055;-75
2022/07/18 00:19:28;;;;;;;3.60;1.85;;;;;;;18.04;41.00;94648.50;5122809;28;20044;-76
2022/07/18 00:21:54;;;;;;;4.30;1.67;;;;;;;18.01;41.12;94649.97;5125730;28;20026;-75
2022/07/18 00:24:20;;;;;;;4.10;1.35;;;;;;;18.01;41.32;94654.56;5127063;28;20297;-75
2022/07/18 00:26:45;;;;;;;3.70;1.40;;;;;;;17.99;41.05;94657.59;5127001;27;20319;-76
2022/07/18 00:29:11;;;;;;;4.43;1.30;;;;;;;17.92;40.45;94652.00;5126697;28;20020;-76
2022/07/18 00:31:36;;;;;;;5.55;2.38;;;;;;;17.72;40.98;94645.59;5127002;28;20069;-76
2022/07/18 00:34:03;;;;;;;1.95;1.20;;;;;;;17.65;41.06;94642.69;5126949;28;20019;-76
2022/07/18 00:36:29;;;;;;;3.33;1.40;;;;;;;17.56;40.88;94642.00;5126623;28;20050;-76
2022/07/18 00:38:54;;;;;;;4.32;1.25;;;;;;;17.57;40.86;94646.28;5126713;28;20310;-76
2022/07/18 00:41:20;;;;;;;4.07;1.30;;;;;;;17.52;40.55;94643.81;5126657;28;20039;-76
2022/07/18 00:43:45;;;;;;;4.50;1.20;;;;;;;17.48;40.13;94643.69;5142619;27;20020;-76
2022/07/18 00:46:11;;;;;;;5.10;1.42;;;;;;;17.49;40.21;94645.28;5126519;28;20094;-76
2022/07/18 00:48:40;;;;;;;5.20;1.20;;;;;;;17.48;39.51;94649.06;5126521;28;20038;-76
2022/07/18 00:51:06;;;;;;;3.33;1.50;;;;;;;17.50;38.69;94651.44;5126487;28;20038;-76
2022/07/18 00:53:31;;;;;;;4.97;1.13;;;;;;;17.49;38.29;94641.78;5126406;28;20205;-76
2022/07/18 00:55:57;;;;;;;2.92;1.30;;;;;;;17.50;38.16;94646.03;5126623;28;20011;-76
2022/07/18 00:58:23;;;;;;;3.78;1.35;;;;;;;17.52;37.89;94651.88;5126383;28;20379;-76
2022/07/18 01:03:33;;;;;;;3.40;1.15;;;;;;;17.58;36.77;94647.84;5126183;28;20223;-76
2022/07/18 01:05:58;;;;;;;5.15;1.20;;;;;;;17.52;36.28;94649.19;5126272;28;20045;-76
2022/07/18 01:08:24;;;;;;;6.82;1.17;;;;;;;17.51;36.30;94647.63;5126423;28;20019;-76
2022/07/18 01:10:51;;;;;;;2.40;1.10;;;;;;;17.41;35.94;94643.47;5126201;28;20213;-76
2022/07/18 01:13:17;;;;;;;4.38;1.20;;;;;;;17.41;35.91;94649.66;5126142;28;20321;-76
2022/07/18 01:15:43;;;;;;;2.20;1.20;;;;;;;17.36;35.57;94657.16;5125675;28;20047;-76
2022/07/18 01:18:08;;;;;;;2.47;1.05;;;;;;;17.35;35.67;94656.38;5125862;28;20028;-76
2022/07/18 01:20:33;;;;;;;2.38;1.17;;;;;;;17.34;35.08;94646.75;5125869;28;20034;-76
2022/07/18 01:22:59;;;;;;;2.60;0.80;;;;;;;17.34;34.79;94643.22;5125842;28;20028;-76
2022/07/18 01:25:26;;;;;;;4.25;1.25;;;;;;;17.26;34.37;94642.25;5125911;28;20215;-76
2022/07/18 01:27:51;;;;;;;3.80;1.25;;;;;;;17.19;34.42;94636.63;5125887;27;20022;-76
2022/07/18 01:30:17;;;;;;;2.78;1.00;;;;;;;17.06;34.30;94641.22;5125687;28;20425;-76
2022/07/18 01:32:43;;;;;;;1.98;0.88;;;;;;;17.10;33.63;94646.72;5125035;28;20019;-76
2022/07/18 01:35:09;;;;;;;2.92;0.80;;;;;;;17.05;33.90;94642.31;5125776;28;20209;-77
2022/07/18 01:37:34;;;;;;;2.05;1.02;;;;;;;16.99;34.06;94643.66;5125598;27;20034;-77
2022/07/18 01:40:00;;;;;;;1.42;0.80;;;;;;;16.94;33.77;94641.97;5125587;28;20217;-77
2022/07/18 01:42:25;;;;;;;2.58;0.85;;;;;;;16.99;33.79;94639.03;5125747;28;20023;-76
2022/07/18 01:44:51;;;;;;;6.40;1.00;;;;;;;16.91;34.14;94626.47;5125596;27;20024;-76
2022/07/18 01:47:16;;;;;;;2.13;1.00;;;;;;;16.83;33.68;94619.28;5125417;28;20086;-75
2022/07/18 01:49:42;;;;;;;6.43;0.82;;;;;;;16.80;33.53;94625.31;5125301;28;20281;-76
2022/07/18 01:52:08;;;;;;;2.33;1.23;;;;;;;16.87;33.52;94630.16;5125433;28;20031;-76
2022/07/18 01:54:36;;;;;;;12.25;1.00;;;;;;;16.92;33.76;94628.06;5125342;28;20376;-76
2022/07/18 01:57:04;;;;;;;1.15;0.70;;;;;;;16.94;33.86;94623.13;5125157;27;20027;-76
2022/07/18 01:59:30;;;;;;;1.55;0.68;;;;;;;16.97;33.85;94625.13;5125069;27;20030;-76
2022/07/18 02:01:56;;;;;;;7.63;0.82;;;;;;;16.97;33.07;94627.81;5125490;28;20036;-76
2022/07/18 02:04:59;;;;;;;1.92;0.85;;;;;;;16.97;33.20;94613.59;5125004;28;20024;-76
2022/07/18 02:07:07;;;;;;;5.03;0.95;;;;;;;16.93;33.08;94608.06;5125069;28;20085;-76
2022/07/18 02:09:33;;;;;;;2.28;0.80;;;;;;;16.90;32.85;94610.66;5125088;28;20314;-76
2022/07/18 02:11:58;;;;;;;4.95;1.02;;;;;;;16.98;33.16;94624.03;5124738;28;20043;-76
2022/07/18 02:14:23;;;;;;;2.47;1.00;;;;;;;16.99;32.30;94625.59;5125081;28;20022;-76
2022/07/18 02:16:49;;;;;;;4.35;0.88;;;;;;;17.05;33.51;94632.31;5124813;28;20046;-76
2022/07/18 02:19:15;;;;;;;3.00;0.75;;;;;;;17.10;33.41;94633.25;5124628;28;20217;-76
2022/07/18 02:21:40;;;;;;;2.33;0.60;;;;;;;17.13;33.08;94637.97;5124906;28;20016;-76
2022/07/18 02:24:06;;;;;;;2.10;1.00;;;;;;;17.14;32.98;94628.78;5124912;28;20015;-76
2022/07/18 02:26:31;;;;;;;1.88;0.70;;;;;;;17.16;32.90;94640.00;5124636;28;20047;-76
2022/07/18 02:28:57;;;;;;;3.58;1.10;;;;;;;17.13;34.87;94644.13;5124580;28;20011;-76
2022/07/18 02:31:23;;;;;;;5.30;1.02;;;;;;;17.09;35.10;94648.59;5124808;28;20278;-76
2022/07/18 02:33:48;;;;;;;2.20;0.70;;;;;;;17.09;33.84;94643.22;5124631;28;20361;-76
2022/07/18 02:36:14;;;;;;;3.53;0.98;;;;;;;17.09;33.17;94642.44;5124432;28;20090;-76
2022/07/18 02:38:39;;;;;;;1.92;0.90;;;;;;;17.03;33.12;94649.94;5124325;28;20023;-76
2022/07/18 02:41:05;;;;;;;2.35;0.95;;;;;;;16.98;32.23;94653.66;5124336;28;20094;-76
2022/07/18 02:43:31;;;;;;;3.88;0.90;;;;;;;16.96;32.59;94657.81;5123499;28;20030;-76
2022/07/18 02:45:56;;;;;;;1.15;0.70;;;;;;;16.96;32.25;94653.19;5124535;28;20035;-76
2022/07/18 02:48:21;;;;;;;2.05;0.73;;;;;;;16.93;32.49;94661.94;5124254;28;20205;-76
2022/07/18 02:50:47;;;;;;;1.98;0.70;;;;;;;16.90;32.88;94657.22;5124147;28;20025;-75
2022/07/18 02:53:12;;;;;;;3.25;0.95;;;;;;;16.88;34.67;94675.63;5123908;28;20019;-76
2022/07/18 02:55:38;;;;;;;4.47;1.58;;;;;;;16.83;34.44;94668.53;5123926;28;20023;-75
2022/07/18 02:58:03;;;;;;;4.43;0.90;;;;;;;16.79;34.98;94666.78;5123967;28;20030;-75
2022/07/18 03:00:29;;;;;;;2.45;0.70;;;;;;;16.78;35.30;94673.31;5124059;28;20103;-76
2022/07/18 03:02:54;;;;;;;4.40;1.00;;;;;;;16.73;36.11;94665.44;5124264;28;20059;-76
2022/07/18 03:05:20;;;;;;;1.90;0.88;;;;;;;16.69;35.72;94669.91;5123853;28;20225;-76
2022/07/18 03:07:45;;;;;;;2.90;1.00;;;;;;;16.65;36.78;94673.28;5123863;28;20016;-76
2022/07/18 03:10:11;;;;;;;2.35;1.00;;;;;;;16.64;35.69;94682.44;5123855;28;20026;-76
2022/07/18 03:12:36;;;;;;;3.90;0.88;;;;;;;16.62;35.89;94673.94;5123870;28;20301;-76
2022/07/18 03:15:02;;;;;;;1.77;0.68;;;;;;;16.62;34.71;94679.31;5123594;28;20031;-76
2022/07/18 03:17:28;;;;;;;5.25;0.85;;;;;;;16.61;34.20;94675.06;5123535;27;20081;-76
2022/07/18 03:19:53;;;;;;;1.25;0.75;;;;;;;16.57;33.89;94684.13;5123597;28;20110;-76
2022/07/18 03:22:19;;;;;;;3.75;0.80;;;;;;;16.44;33.73;94681.38;5123590;27;20111;-76
2022/07/18 03:24:44;;;;;;;4.03;0.85;;;;;;;16.33;33.32;94682.91;5123517;28;20015;-76
2022/07/18 03:27:10;;;;;;;2.47;0.80;;;;;;;16.25;33.71;94678.38;5123446;28;20251;-76
2022/07/18 03:29:35;;;;;;;3.70;0.95;;;;;;;16.21;34.46;94672.06;5123572;28;20016;-76
2022/07/18 03:32:01;;;;;;;2.05;0.60;;;;;;;16.06;34.62;94668.09;5123608;28;20031;-76
2022/07/18 03:34:26;;;;;;;1.30;0.50;;;;;;;15.99;34.96;94675.88;5123428;28;20094;-76
2022/07/18 03:36:52;;;;;;;3.40;1.50;;;;;;;15.98;35.38;94668.94;5123343;28;20025;-76
2022/07/18 03:39:17;;;;;;;1.95;0.70;;;;;;;15.88;35.59;94664.72;5123260;28;20159;-76
2022/07/18 03:41:43;;;;;;;2.20;1.02;;;;;;;15.93;36.19;94677.97;5123268;28;20081;-76
2022/07/18 03:44:08;;;;;;;2.10;0.77;;;;;;;15.93;36.04;94679.88;5123177;28;20104;-76
2022/07/18 03:46:34;;;;;;;1.60;0.77;;;;;;;16.01;35.95;94676.34;5123377;28;20023;-76
2022/07/18 03:49:00;;;;;;;2.13;1.00;;;;;;;16.09;35.95;94682.78;5123369;28;20027;-76
2022/07/18 03:51:26;;;;;;;3.35;1.58;;;;;;;16.18;36.32;94676.22;5123460;28;20020;-76
2022/07/18 03:53:51;;;;;;;4.05;0.82;;;;;;;16.27;36.57;94669.97;5123185;28;20031;-75
2022/07/18 03:56:17;;;;;;;2.13;1.10;;;;;;;16.34;36.73;94683.69;5123099;28;20032;-76
2022/07/18 03:58:42;;;;;;;3.35;0.85;;;;;;;16.44;36.77;94683.28;5122981;28;20011;-76
2022/07/18 04:01:09;;;;;;;4.05;1.00;;;;;;;16.54;36.85;94676.72;5123002;28;20095;-77
2022/07/18 04:03:35;;;;;;;1.77;0.88;;;;;;;16.60;37.17;94676.16;5123081;28;20019;-77
2022/07/18 04:06:00;;;;;;;3.92;1.27;;;;;;;16.69;37.21;94683.38;5123127;28;20016;-77
2022/07/18 04:08:26;;;;;;;3.63;0.90;;;;;;;16.77;37.49;94679.81;5122928;28;20020;-77
2022/07/18 04:10:51;;;;;;;7.82;1.17;;;;;;;16.84;37.85;94688.16;5123027;28;20031;-77
2022/07/18 04:13:17;;;;;;;2.20;1.20;;;;;;;16.94;37.69;94679.66;5122946;28;20094;-76
2022/07/18 04:15:43;;;;;;;2.33;1.27;;;;;;;17.07;38.14;94674.31;5122631;28;20085;-76
2022/07/18 04:18:09;;;;;;;4.18;1.50;;;;;;;17.14;37.81;94682.63;5123168;28;20024;-77
2022/07/18 04:20:36;;;;;;;3.28;1.45;;;;;;;17.23;38.15;94686.00;5123238;28;20322;-76
2022/07/18 04:23:03;;;;;;;7.95;1.70;;;;;;;17.30;38.95;94680.88;5123055;28;20027;-76
2022/07/18 04:25:34;;;;;;;4.43;1.38;;;;;;;17.38;39.13;94679.97;5122947;28;20020;-76
2022/07/18 04:28:01;;;;;;;6.38;1.20;;;;;;;17.35;38.44;94682.53;5122946;28;20030;-76
2022/07/18 04:30:27;;;;;;;6.55;1.33;;;;;;;17.32;39.18;94683.19;5122774;28;20031;-76
2022/07/18 04:32:54;;;;;;;2.72;1.27;;;;;;;17.37;40.44;94680.31;5122925;28;20027;-76
2022/07/18 04:35:19;;;;;;;4.32;1.50;;;;;;;17.39;40.28;94678.84;5122885;28;20019;-76
2022/07/18 04:37:45;;;;;;;5.18;1.25;;;;;;;17.41;40.72;94671.19;5122769;28;20123;-76
2022/07/18 04:40:16;;;;;;;5.13;1.10;;;;;;;17.49;39.65;94674.91;5122549;28;20065;-76
2022/07/18 04:42:42;;;;;;;3.13;1.20;;;;;;;17.51;39.31;94671.88;5122778;28;20073;-76
2022/07/18 04:45:08;;;;;;;2.10;1.15;;;;;;;17.57;39.50;94667.84;5122713;28;20111;-76
2022/07/18 04:47:34;;;;;;;8.05;0.93;;;;;;;17.63;39.58;94671.88;5122614;28;20092;-76
2022/07/18 04:49:59;;;;;;;4.55;1.23;;;;;;;17.62;37.30;94670.31;5122784;28;20019;-76
2022/07/18 04:52:25;;;;;;;3.90;1.00;;;;;;;17.56;37.33;94666.25;5122806;28;20030;-76
2022/07/18 04:54:51;;;;;;;3.17;1.00;;;;;;;17.61;37.19;94660.66;5138707;28;20023;-77
2022/07/18 04:57:16;;;;;;;1.98;1.00;;;;;;;17.65;36.19;94669.63;5122368;28;20023;-76
2022/07/18 04:59:43;;;;;;;3.53;0.80;;;;;;;17.68;35.88;94662.78;5122494;28;20024;-76
2022/07/18 05:02:09;;;;;;;2.50;0.93;;;;;;;17.74;36.75;94662.19;5122603;28;20040;-76
2022/07/18 05:04:35;;;;;;;2.40;0.85;;;;;;;17.81;36.76;94672.44;5122380;28;20027;-76
2022/07/18 05:07:00;;;;;;;3.05;1.55;;;;;;;17.92;36.25;94670.88;5124016;28;20095;-76
2022/07/18 05:09:26;;;;;;;2.13;1.13;;;;;;;18.01;36.49;94670.72;5126190;28;20019;-76
2022/07/18 05:11:52;;;;;;;4.30;1.33;;;;;;;18.09;33.94;94671.72;5125890;28;20035;-76
2022/07/18 05:14:18;;;;;;;5.00;1.15;;;;;;;18.15;34.59;94671.16;5126149;28;20020;-76
2022/07/18 05:16:43;;;;;;;7.35;1.25;;;;;;;18.26;35.74;94663.38;5125952;28;20039;-76
2022/07/18 05:19:09;;;;;;;5.50;1.20;;;;;;;18.35;36.72;94664.00;5126136;28;20039;-75
2022/07/18 05:21:34;;;;;;;18.50;1.27;;;;;;;18.38;35.04;94667.97;5125796;28;20027;-75
2022/07/18 05:24:00;;;;;;;6.80;1.42;;;;;;;18.43;36.73;94667.72;5125880;28;20072;-75
2022/07/18 05:26:26;;;;;;;9.35;1.65;;;;;;;18.54;34.99;94668.00;5125904;28;20027;-75
2022/07/18 05:28:51;;;;;;;4.75;1.20;;;;;;;18.63;33.88;94666.72;5126001;27;20082;-75
2022/07/18 05:31:17;;;;;;;4.60;1.60;;;;;;;18.70;35.23;94668.03;5125933;28;20123;-75
2022/07/18 05:33:42;;;;;;;5.18;1.40;;;;;;;18.77;35.03;94670.94;5126064;28;20125;-76
2022/07/18 05:36:08;;;;;;;6.95;1.10;;;;;;;18.83;33.03;94670.38;5125878;28;20027;-76
2022/07/18 05:38:34;;;;;;;8.88;2.13;;;;;;;18.91;31.13;94675.94;5125509;28;20027;-76
2022/07/18 05:40:59;;;;;;;8.13;1.95;;;;;;;18.95;30.81;94672.22;5125874;28;20271;-76
2022/07/18 05:43:25;;;;;;;12.43;2.30;;;;;;;18.98;32.08;94679.63;5125699;28;20031;-76
2022/07/18 05:45:50;;;;;;;7.18;1.58;;;;;;;19.03;30.58;94679.38;5124243;28;20244;-76
2022/07/18 05:48:16;;;;;;;6.22;1.20;;;;;;;19.03;31.78;94678.59;5125611;28;20016;-76
2022/07/18 05:50:41;;;;;;;6.00;1.20;;;;;;;19.10;32.80;94686.88;5125543;28;20309;-76
2022/07/18 05:53:07;;;;;;;4.90;1.02;;;;;;;19.16;30.50;94677.41;5124287;28;20015;-76
2022/07/18 05:55:32;;;;;;;5.07;1.30;;;;;;;19.15;31.72;94677.72;5125432;28;20023;-76
2022/07/18 05:57:58;;;;;;;10.40;1.45;;;;;;;19.18;31.36;94682.47;5125283;28;20092;-76
2022/07/18 06:00:23;;;;;;;10.05;1.40;;;;;;;19.26;31.47;94686.13;5125336;27;20329;-76
2022/07/18 06:02:50;;;;;;;2.92;1.00;;;;;;;19.30;31.36;94690.47;5125096;28;20020;-76
2022/07/18 06:05:16;;;;;;;4.47;1.20;;;;;;;19.36;29.58;94677.50;5125319;28;20027;-76
2022/07/18 06:07:41;;;;;;;6.18;0.95;;;;;;;19.32;29.40;94685.50;5125122;27;20221;-76
2022/07/18 06:10:07;;;;;;;5.25;0.95;;;;;;;19.36;31.02;94689.09;5125238;28;20039;-76
2022/07/18 06:12:33;;;;;;;4.53;1.10;;;;;;;19.38;29.67;94689.53;5125022;28;20031;-76
2022/07/18 06:14:59;;;;;;;6.90;1.48;;;;;;;19.37;29.85;94693.34;5124987;28;20027;-76
2022/07/18 06:17:25;;;;;;;21.38;1.95;;;;;;;19.36;30.25;94683.69;5124674;28;20051;-76
2022/07/18 06:19:51;;;;;;;8.52;1.50;;;;;;;19.39;31.41;94682.97;5123942;28;20095;-76
2022/07/18 06:22:17;;;;;;;8.23;1.35;;;;;;;19.34;30.31;94687.88;5125080;27;20090;-76
2022/07/18 06:24:42;;;;;;;5.28;2.22;;;;;;;19.48;30.17;94684.72;5124779;28;20094;-76
2022/07/18 06:27:08;;;;;;;4.90;1.52;;;;;;;19.61;30.51;94684.28;5124709;28;20095;-76
2022/07/18 06:29:33;;;;;;;4.68;1.10;;;;;;;19.62;29.53;94674.25;5124997;28;20246;-76
2022/07/18 06:31:59;;;;;;;3.33;0.90;;;;;;;19.68;28.55;94680.94;5124716;28;20028;-76
2022/07/18 06:34:24;;;;;;;2.30;1.02;;;;;;;19.62;28.41;94676.94;5124698;28;20027;-76
2022/07/18 06:36:50;;;;;;;2.30;1.15;;;;;;;19.71;28.40;94674.09;5124495;28;20267;-76
2022/07/18 06:39:18;;;;;;;3.17;1.23;;;;;;;19.74;28.55;94670.69;5124557;28;20096;-76
2022/07/18 06:41:43;;;;;;;12.32;1.13;;;;;;;19.83;29.92;94666.66;5124463;28;20023;-75
2022/07/18 06:44:09;;;;;;;8.05;1.40;;;;;;;19.84;29.37;94676.34;5124436;28;20026;-76
2022/07/18 06:46:36;;;;;;;3.95;1.08;;;;;;;19.79;28.80;94667.72;5124477;28;20227;-76
2022/07/18 06:49:02;;;;;;;2.97;1.55;;;;;;;19.78;29.27;94669.66;5124462;28;20064;-76
2022/07/18 06:51:28;;;;;;;6.15;1.20;;;;;;;19.89;29.13;94661.00;5124189;28;20020;-76
2022/07/18 06:53:53;;;;;;;6.03;1.65;;;;;;;19.97;30.42;94657.31;5124107;27;20041;-76
2022/07/18 06:56:19;;;;;;;3.97;1.63;;;;;;;20.03;29.44;94658.59;5124227;28;20019;-76
2022/07/18 06:58:48;;;;;;;4.50;1.35;;;;;;;20.14;29.52;94659.59;5124137;28;20321;-76
2022/07/18 07:01:16;;;;;;;9.13;1.77;;;;;;;20.17;29.24;94655.38;5124135;28;20302;-75
2022/07/18 07:03:41;;;;;;;7.93;1.45;;;;;;;20.19;29.46;94662.03;5124017;28;20027;-75
2022/07/18 07:06:06;;;;;;;13.45;1.50;;;;;;;20.28;28.29;94652.94;5124138;28;20206;-76
2022/07/18 07:08:32;;;;;;;5.10;1.33;;;;;;;20.32;28.11;94645.66;5123945;28;20352;-75
2022/07/18 07:10:57;;;;;;;4.85;1.40;;;;;;;20.38;28.93;94650.44;5123622;28;20027;-76
2022/07/18 07:13:23;;;;;;;6.18;1.65;;;;;;;20.46;28.77;94640.53;5123780;28;20027;-75
2022/07/18 07:15:48;;;;;;;4.80;1.85;;;;;;;20.55;28.22;94651.91;5123540;28;20325;-75
2022/07/18 07:18:14;;;;;;;4.63;1.25;;;;;;;20.65;27.46;94645.19;5123827;28;20043;-75
2022/07/18 07:20:39;;;;;;;4.05;1.05;;;;;;;20.74;29.87;94656.59;5123696;28;20053;-75
2022/07/18 07:23:07;;;;;;;10.07;1.25;;;;;;;20.76;26.21;94643.47;5123762;28;20030;-75
2022/07/18 07:25:33;;;;;;;2.67;1.08;;;;;;;20.78;26.49;94654.72;5123617;28;20095;-75
2022/07/18 07:27:58;;;;;;;3.03;1.20;;;;;;;20.80;28.77;94644.31;5123523;28;20024;-75
2022/07/18 07:30:24;;;;;;;4.50;1.27;;;;;;;20.67;26.67;94645.59;5123439;28;20024;-75
2022/07/18 07:32:51;;;;;;;7.15;1.50;;;;;;;20.67;26.32;94652.94;5123565;28;20090;-75
2022/07/18 07:35:17;;;;;;;9.18;1.70;;;;;;;20.70;27.25;94650.31;5123438;28;20118;-75
2022/07/18 07:37:46;;;;;;;4.78;1.73;;;;;;;20.52;26.04;94649.94;5123138;28;20035;-75
2022/07/18 07:40:14;;;;;;;3.75;1.40;;;;;;;20.61;26.21;94653.22;5123330;28;20034;-75
2022/07/18 07:42:40;;;;;;;6.63;1.30;;;;;;;20.76;26.79;94642.66;5123388;28;20023;-75
2022/07/18 07:45:06;;;;;;;9.35;1.35;;;;;;;20.78;26.27;94645.78;5123278;28;20047;-75
2022/07/18 07:47:32;;;;;;;7.93;1.60;;;;;;;20.82;25.72;94647.44;5123137;28;20057;-75
2022/07/18 07:49:58;;;;;;;3.90;1.70;;;;;;;20.86;25.35;94655.63;5123218;28;20102;-75
2022/07/18 07:52:24;;;;;;;14.60;2.25;;;;;;;20.90;26.87;94658.41;5123247;28;20012;-75
2022/07/18 07:54:50;;;;;;;5.35;1.13;;;;;;;20.95;25.45;94650.78;5123196;28;20095;-75
2022/07/18 07:57:15;;;;;;;4.72;1.40;;;;;;;21.06;25.75;94655.59;5123289;28;20217;-75
2022/07/18 07:59:41;;;;;;;4.90;1.02;;;;;;;21.07;25.34;94651.75;5122883;28;20023;-75
2022/07/18 08:02:07;;;;;;;2.50;1.02;;;;;;;21.10;25.94;94661.84;5123312;28;20119;-75
2022/07/18 08:04:32;;;;;;;5.25;1.35;;;;;;;21.24;27.10;94651.25;5122907;28;20030;-76
2022/07/18 08:06:58;;;;;;;7.82;1.27;;;;;;;21.39;26.62;94654.97;5123119;28;20080;-75
2022/07/18 08:09:23;;;;;;;4.47;1.40;;;;;;;21.46;25.84;94657.84;5123014;28;20012;-75
2022/07/18 08:11:49;;;;;;;15.23;1.73;;;;;;;21.52;25.85;94661.06;5122834;28;20061;-75
2022/07/18 08:14:15;;;;;;;5.05;1.63;;;;;;;21.63;25.29;94654.63;5122937;28;20023;-75
2022/07/18 08:16:40;;;;;;;4.90;1.05;;;;;;;21.70;23.99;94651.25;5123056;28;20111;-75
2022/07/18 08:19:06;;;;;;;10.00;1.42;;;;;;;21.71;23.84;94650.09;5123095;28;20019;-75
2022/07/18 08:21:31;;;;;;;3.20;1.00;;;;;;;21.72;24.29;94659.81;5122933;28;20034;-75
2022/07/18 08:23:57;;;;;;;3.40;1.10;;;;;;;21.74;24.33;94654.03;5122917;28;20020;-75
2022/07/18 08:26:22;;;;;;;6.85;1.30;;;;;;;21.76;25.89;94651.75;5122985;28;20059;-75
2022/07/18 08:28:48;;;;;;;8.20;1.05;;;;;;;21.78;24.50;94657.59;5122790;28;20039;-75
2022/07/18 08:31:13;;;;;;;4.40;1.10;;;;;;;21.73;24.72;94652.44;5122886;28;20023;-75
2022/07/18 08:33:39;;;;;;;7.15;1.17;;;;;;;21.79;24.66;94662.63;5122982;28;20047;-75
2022/07/18 08:36:04;;;;;;;9.05;1.38;;;;;;;21.91;25.13;94658.16;5122716;28;20020;-75
2022/07/18 08:38:30;;;;;;;9.18;1.67;;;;;;;22.03;24.97;94658.72;5122755;28;20027;-75
2022/07/18 08:40:58;;;;;;;8.52;1.95;;;;;;;22.09;25.32;94655.69;5122901;28;20327;-75
2022/07/18 08:43:25;;;;;;;12.88;1.33;;;;;;;22.15;23.47;94655.00;5126202;28;20091;-75
2022/07/18 08:45:56;;;;;;;8.95;2.13;;;;;;;22.13;24.03;94657.28;5126738;28;20103;-75
2022/07/18 08:48:22;;;;;;;5.32;1.30;;;;;;;22.14;24.08;94653.41;5126693;28;20559;-75
2022/07/18 08:50:49;;;;;;;14.68;2.38;;;;;;;22.13;23.91;94654.59;5126685;28;20251;-76
2022/07/18 08:53:15;;;;;;;8.48;1.25;;;;;;;22.23;23.56;94662.13;5126605;28;20023;-77
2022/07/18 08:55:41;;;;;;;3.20;1.10;;;;;;;22.28;23.22;94662.94;5126598;28;20123;-76
2022/07/18 08:58:07;;;;;;;4.43;1.05;;;;;;;22.21;23.10;94660.91;5126565;28;20279;-76
2022/07/18 09:00:35;;;;;;;2.95;1.42;;;;;;;22.23;24.24;94653.97;5126306;28;20027;-76
2022/07/18 09:03:01;;;;;;;7.82;1.00;;;;;;;22.20;23.76;94651.94;5126603;28;20063;-77
2022/07/18 09:05:27;;;;;;;2.50;1.08;;;;;;;22.22;24.36;94649.66;5126458;28;20351;-77
2022/07/18 09:08:10;;;;;;;6.47;1.35;;;;;;;22.24;24.78;94641.16;5125932;28;20015;-76
2022/07/18 09:10:56;;;;;;;3.60;1.10;;;;;;;22.46;25.25;94646.88;5125924;28;20027;-76
2022/07/18 09:13:29;;;;;;;2.47;1.02;;;;;;;22.60;24.79;94647.81;5125952;28;20020;-76
2022/07/18 09:15:58;;;;;;;5.90;1.70;;;;;;;22.80;23.69;94651.16;5126049;28;20054;-76
2022/07/18 09:18:35;;;;;;;4.97;1.70;;;;;;;22.90;23.28;94647.00;5125890;28;20019;-77
2022/07/18 09:21:11;;;;;;;6.63;1.08;;;;;;;22.90;22.25;94649.72;5125904;28;20390;-75
2022/07/18 09:23:41;;;;;;;2.38;0.98;;;;;;;22.94;22.48;94647.81;5125854;28;20250;-76
2022/07/18 09:26:09;;;;;;;5.40;1.20;;;;;;;22.91;23.06;94656.69;5126128;28;20259;-75
2022/07/18 09:28:49;;;;;;;4.88;1.23;;;;;;;22.91;23.61;94648.53;5126136;28;20079;-76
2022/07/18 09:31:21;;;;;;;8.23;1.38;;;;;;;22.89;23.75;94645.41;5125862;28;20221;-75
2022/07/18 09:33:53;;;;;;;8.18;1.58;;;;;;;22.97;24.97;94647.03;5125726;28;20024;-76
2022/07/18 09:36:18;;;;;;;1.98;1.27;;;;;;;23.11;24.64;94640.22;5125747;28;20027;-76
2022/07/18 09:38:44;;;;;;;20.95;1.92;;;;;;;23.30;25.01;94645.44;5125714;28;20252;-76
2022/07/18 09:41:11;;;;;;;8.55;1.20;;;;;;;23.43;23.90;94640.53;5125952;28;20015;-76
2022/07/18 09:43:37;;;;;;;9.70;1.67;;;;;;;23.58;24.13;94647.63;5124464;28;20318;-76
2022/07/18 09:46:05;;;;;;;4.32;1.40;;;;;;;23.64;24.13;94648.06;5125544;28;20027;-76
2022/07/18 09:48:30;;;;;;;5.18;2.00;;;;;;;23.72;24.64;94643.47;5125534;28;20019;-76
2022/07/18 09:50:59;;;;;;;4.90;1.48;;;;;;;23.60;24.43;94633.66;5125456;28;20166;-76
2022/07/18 09:53:27;;;;;;;3.83;2.13;;;;;;;23.69;23.51;94639.56;5125031;27;20023;-76
2022/07/18 09:55:58;;;;;;;10.50;1.80;;;;;;;23.73;24.79;94629.47;5125339;28;20027;-76
2022/07/18 09:58:26;;;;;;;6.57;1.05;;;;;;;23.71;24.22;94631.78;5125300;28;20032;-76
2022/07/18 10:00:54;;;;;;;6.57;1.48;;;;;;;23.80;24.84;94640.44;5124190;28;20340;-76
2022/07/18 10:03:20;;;;;;;4.60;1.52;;;;;;;23.98;24.92;94640.53;5125383;28;20026;-76
2022/07/18 10:05:47;;;;;;;9.02;2.15;;;;;;;24.10;24.75;94639.44;5125267;28;20019;-76
2022/07/18 10:08:16;;;;;;;13.00;1.70;;;;;;;24.26;24.36;94635.63;5125140;28;20218;-76
2022/07/18 10:10:45;;;;;;;6.72;1.50;;;;;;;24.17;24.89;94634.03;5125243;28;20104;-76
2022/07/18 10:13:11;;;;;;;7.00;1.83;;;;;;;24.36;26.22;94629.44;5125354;27;20028;-76
2022/07/18 10:15:39;;;;;;;9.07;1.58;;;;;;;24.52;26.10;94629.94;5124808;28;20279;-76
2022/07/18 10:18:07;;;;;;;6.80;1.83;;;;;;;24.59;24.59;94627.25;5124847;28;20615;-76
2022/07/18 10:20:43;;;;;;;6.57;1.52;;;;;;;24.43;25.46;94624.03;5124988;28;20400;-76
2022/07/18 10:23:27;;;;;;;5.20;1.50;;;;;;;24.59;26.48;94629.19;5125018;28;20371;-76
2022/07/18 10:26:11;;;;;;;3.63;1.40;;;;;;;24.70;26.05;94626.50;5124828;28;20068;-75
2022/07/18 10:29:00;;;;;;;3.85;1.52;;;;;;;24.81;26.20;94619.91;5124715;28;20026;-75
2022/07/18 10:31:31;;;;;;;6.07;1.50;;;;;;;24.93;26.62;94617.97;5124405;28;20024;-76
2022/07/18 10:34:08;;;;;;;3.63;1.48;;;;;;;25.08;26.50;94616.84;5124480;28;20027;-76
2022/07/18 10:36:35;;;;;;;15.55;1.80;;;;;;;25.08;26.19;94614.13;5124273;28;20102;-75
2022/07/18 10:39:22;;;;;;;8.95;1.52;;;;;;;25.23;25.63;94615.72;5123995;28;20111;-75
2022/07/18 10:41:48;;;;;;;7.43;1.60;;;;;;;25.28;25.43;94608.31;5124040;28;20019;-75
2022/07/18 10:44:29;;;;;;;6.88;1.80;;;;;;;25.35;25.03;94606.38;5124402;28;20035;-75
2022/07/18 10:47:09;;;;;;;7.13;1.52;;;;;;;25.39;24.81;94598.19;5124232;28;20038;-76
2022/07/18 10:49:58;;;;;;;9.18;1.58;;;;;;;25.43;24.56;94599.75;5124290;28;20019;-75
2022/07/18 10:52:26;;;;;;;14.00;1.80;;;;;;;25.47;25.40;94604.44;5120496;28;20114;-76
2022/07/18 10:55:16;;;;;;;3.78;1.30;;;;;;;25.47;24.92;94601.69;5124219;28;20020;-76
2022/07/18 10:58:01;;;;;;;8.10;1.80;;;;;;;25.51;25.14;94603.25;5124104;28;20051;-76
2022/07/18 11:00:33;;;;;;;8.45;1.80;;;;;;;25.63;25.87;94591.16;5123981;28;20027;-76
2022/07/18 11:03:05;;;;;;;;;;;;;;;25.61;24.98;94598.97;5124281;28;20054;-76
2022/07/18 11:05:33;;;;;;;3.92;1.80;;;;;;;25.61;24.39;94596.22;5123382;28;19934;-76
2022/07/18 11:08:01;;;;;;;11.00;1.73;;;;;;;25.67;26.19;94586.47;5123790;28;20914;-76
2022/07/18 11:10:46;;;;;;;5.55;1.65;;;;;;;25.66;25.85;94589.59;5123958;28;20023;-76
2022/07/18 11:13:22;;;;;;;4.57;1.48;;;;;;;25.61;26.04;94590.78;5124266;28;20031;-76
2022/07/18 11:16:15;;;;;;;14.85;1.73;;;;;;;25.75;25.88;94581.78;5123685;28;20051;-76
2022/07/18 11:18:40;;;;;;;5.30;1.50;;;;;;;25.93;25.10;94571.63;5123995;28;20031;-76
2022/07/18 11:21:31;;;;;;;4.47;1.60;;;;;;;25.96;24.38;94575.53;5123562;28;20321;-76
2022/07/18 11:24:09;;;;;;;7.03;1.40;;;;;;;26.10;24.24;94571.97;5123718;28;20313;-76
2022/07/18 11:26:37;;;;;;;4.45;1.50;;;;;;;26.20;24.73;94585.59;5123755;28;20082;-75
2022/07/18 11:29:05;;;;;;;5.28;1.67;;;;;;;26.29;23.41;94573.47;5123754;28;20090;-75
2022/07/18 11:31:32;;;;;;;4.05;1.63;;;;;;;26.36;24.01;94576.94;5123402;28;20024;-76
2022/07/18 11:34:00;;;;;;;3.42;1.65;;;;;;;26.54;24.04;94576.06;5123636;28;20020;-76
2022/07/18 11:36:32;;;;;;;6.82;1.75;;;;;;;26.64;23.17;94574.50;5123534;28;20031;-75